Grand Batture — WYP8397 — position and weather

sailwx.info

Track history (hours):
 
Tides and Currents Weather Stations Pressure Air Temp Water Temp Dewpoint Dewpoint Depression Visibility Wind Speed Wind Dir Waves Ship Positions

Grand Batture

Owner: Alpha VesselCo, LLC, Suffolk, VA. More information available from US FCC via Universal Licensing System and Coast Guard Vessel Documentation Center.

Last reported at 2018-Jun-15 10:16 UTC. Time now 2018-Jun-18 13:05 UTC.
Position N 29°49' W 092°08'.

Length 49 m; draft 3.6 m.

Type: Fishing. MMSI: 367088180.

Date/timePositionNaut miles runAvg speedWind from/ knotsBaromVisibWave heightAir tempDewpointWater temp
2018-Jun-15 10:16N 29°49' W 092°08'0 0.0
2018-Jun-15 09:58N 29°49' W 092°08'0 0.0
2018-Jun-15 09:28N 29°49' W 092°08'0 0.0
2018-Jun-15 08:58N 29°49' W 092°08'0 0.0
2018-Jun-15 08:28N 29°49' W 092°08'0 0.0
2018-Jun-15 08:00N 29°49' W 092°08'0 0.0
2018-Jun-15 07:30N 29°49' W 092°08'0 0.0
2018-Jun-15 06:57N 29°49' W 092°08'0 0.0
2018-Jun-15 06:24N 29°49' W 092°08'0 0.0
2018-Jun-15 06:00N 29°49' W 092°08'2 3.1
2018-Jun-15 05:30N 29°48' W 092°08'3 5.5
2018-Jun-15 05:00N 29°46' W 092°11'4 8.3
2018-Jun-15 04:30N 29°43' W 092°15'5 8.1
2018-Jun-15 03:56N 29°39' W 092°16'14 0.4
2018-Jun-13 13:20N 29°37' W 092°00'3 8.8
2018-Jun-13 12:59N 29°39' W 092°02'4 7.6
2018-Jun-13 12:30N 29°42' W 092°05'4 8.0
2018-Jun-13 12:00N 29°46' W 092°07'3 6.1
2018-Jun-13 11:30N 29°49' W 092°08'1 0.1
2018-Jun-13 05:09N 29°49' W 092°08'0 0.7
2018-Jun-13 05:00N 29°49' W 092°08'3 5.3
2018-Jun-13 04:30N 29°47' W 092°09'4 7.9
2018-Jun-13 04:00N 29°45' W 092°13'5 8.8
2018-Jun-13 03:29N 29°41' W 092°15'5 0.1
2018-Jun-11 01:07N 29°36' W 092°18'1 8.7
2018-Jun-11 00:56N 29°37' W 092°17'4 8.2
2018-Jun-11 00:28N 29°41' W 092°15'4 8.8
2018-Jun-11 00:00N 29°44' W 092°14'4 9.0
2018-Jun-10 23:30N 29°47' W 092°09'3 4.4
2018-Jun-10 22:54N 29°49' W 092°08'0 0.0
2018-Jun-10 22:30N 29°49' W 092°08'0 0.0
2018-Jun-10 21:57N 29°49' W 092°08'0 0.0
2018-Jun-10 21:30N 29°49' W 092°08'0 0.0
2018-Jun-10 21:00N 29°49' W 092°08'0 0.0
2018-Jun-10 20:30N 29°49' W 092°08'0 0.0
2018-Jun-10 19:54N 29°49' W 092°08'0 0.0
2018-Jun-10 15:29N 29°49' W 092°08'0 0.0
2018-Jun-10 14:59N 29°49' W 092°08'0 0.0
2018-Jun-10 13:17N 29°49' W 092°08'0 0.0
2018-Jun-10 12:32N 29°49' W 092°08'0 0.0
2018-Jun-10 12:23N 29°49' W 092°08'0 0.0
2018-Jun-10 11:50N 29°49' W 092°08'0 0.0
2018-Jun-10 11:20N 29°49' W 092°08'0 0.0
2018-Jun-10 10:53N 29°49' W 092°08'0 0.0
2018-Jun-10 10:20N 29°49' W 092°08'0 0.0
2018-Jun-10 08:53N 29°49' W 092°08'0 0.0
2018-Jun-10 07:50N 29°49' W 092°08'0 0.0
2018-Jun-10 07:29N 29°49' W 092°08'0 0.0
2018-Jun-10 01:32N 29°49' W 092°08'0 0.0
2018-Jun-10 01:17N 29°49' W 092°08'0 0.0
2018-Jun-10 00:23N 29°49' W 092°08'0 0.0
2018-Jun-09 23:50N 29°49' W 092°08'0 0.0
2018-Jun-09 23:26N 29°49' W 092°08'0 0.0
2018-Jun-09 22:11N 29°49' W 092°08'0 0.0
2018-Jun-09 21:50N 29°49' W 092°08'0 0.0
2018-Jun-09 21:29N 29°49' W 092°08'0 0.0
2018-Jun-09 20:59N 29°49' W 092°08'0 0.0
2018-Jun-09 20:11N 29°49' W 092°08'0 0.0
2018-Jun-09 19:53N 29°49' W 092°08'0 0.0
2018-Jun-09 19:29N 29°49' W 092°08'0 0.0
2018-Jun-09 18:59N 29°49' W 092°08'0 0.0
2018-Jun-09 18:29N 29°49' W 092°08'0 0.0
2018-Jun-09 17:59N 29°49' W 092°08'0 0.0
2018-Jun-09 17:29N 29°49' W 092°08'0 0.0
2018-Jun-09 16:35N 29°49' W 092°08'0 0.0
2018-Jun-09 16:20N 29°49' W 092°08'0 0.0
2018-Jun-09 14:25N 29°49' W 092°08'0 0.3
2018-Jun-09 13:58N 29°49' W 092°08'0 0.0
2018-Jun-09 13:28N 29°49' W 092°08'0 0.0
2018-Jun-09 12:58N 29°49' W 092°08'0 0.0
2018-Jun-09 12:28N 29°49' W 092°08'0 0.0
2018-Jun-09 11:58N 29°49' W 092°08'0 0.0
2018-Jun-09 11:28N 29°49' W 092°08'0 0.0
2018-Jun-09 10:58N 29°49' W 092°08'0 0.0
2018-Jun-09 10:28N 29°49' W 092°08'0 0.0
2018-Jun-09 09:58N 29°49' W 092°08'0 0.0
2018-Jun-09 09:28N 29°49' W 092°08'0 0.0
2018-Jun-09 08:58N 29°49' W 092°08'0 0.0
2018-Jun-09 08:28N 29°49' W 092°08'0 0.0
2018-Jun-09 07:58N 29°49' W 092°08'0 0.0
2018-Jun-09 07:28N 29°49' W 092°08'0 0.0
2018-Jun-09 06:58N 29°49' W 092°08'0 0.0
2018-Jun-09 06:28N 29°49' W 092°08'0 0.0
2018-Jun-09 05:58N 29°49' W 092°08'0 0.0
2018-Jun-09 05:28N 29°49' W 092°08'0 0.0
2018-Jun-09 04:58N 29°49' W 092°08'0 0.0
2018-Jun-09 04:28N 29°49' W 092°08'0 0.0
2018-Jun-09 03:58N 29°49' W 092°08'0 0.0
2018-Jun-09 03:28N 29°49' W 092°08'0 0.0
2018-Jun-09 02:58N 29°49' W 092°08'0 0.0
2018-Jun-09 02:28N 29°49' W 092°08'2 3.9
2018-Jun-09 02:00N 29°47' W 092°09'3 5.9
2018-Jun-09 01:30N 29°46' W 092°11'4 8.6
2018-Jun-09 01:00N 29°43' W 092°15'4 8.1
2018-Jun-09 00:27N 29°38' W 092°16'  
Track history (hours):
 
Tides and Currents Weather Stations Pressure Air Temp Water Temp Dewpoint Dewpoint Depression Visibility Wind Speed Wind Dir Waves Ship Positions

Grand Batture

Owner: Alpha VesselCo, LLC, Suffolk, VA. More information available from US FCC via Universal Licensing System and Coast Guard Vessel Documentation Center.

Last reported at 2018-Jun-15 10:16 UTC. Time now 2018-Jun-18 13:05 UTC.
Position N 29°49' W 092°08'.

Length 49 m; draft 3.6 m.

Type: Fishing. MMSI: 367088180.

Date/timePositionNaut miles runAvg speedWind from/ knotsBaromVisibWave heightAir tempDewpointWater temp
2018-Jun-15 10:16N 29°49' W 092°08'0 0.0
2018-Jun-15 09:58N 29°49' W 092°08'0 0.0
2018-Jun-15 09:28N 29°49' W 092°08'0 0.0
2018-Jun-15 08:58N 29°49' W 092°08'0 0.0
2018-Jun-15 08:28N 29°49' W 092°08'0 0.0
2018-Jun-15 08:00N 29°49' W 092°08'0 0.0
2018-Jun-15 07:30N 29°49' W 092°08'0 0.0
2018-Jun-15 06:57N 29°49' W 092°08'0 0.0
2018-Jun-15 06:24N 29°49' W 092°08'0 0.0
2018-Jun-15 06:00N 29°49' W 092°08'2 3.1
2018-Jun-15 05:30N 29°48' W 092°08'3 5.5
2018-Jun-15 05:00N 29°46' W 092°11'4 8.3
2018-Jun-15 04:30N 29°43' W 092°15'5 8.1
2018-Jun-15 03:56N 29°39' W 092°16'14 0.4
2018-Jun-13 13:20N 29°37' W 092°00'3 8.8
2018-Jun-13 12:59N 29°39' W 092°02'4 7.6
2018-Jun-13 12:30N 29°42' W 092°05'4 8.0
2018-Jun-13 12:00N 29°46' W 092°07'3 6.1
2018-Jun-13 11:30N 29°49' W 092°08'1 0.1
2018-Jun-13 05:09N 29°49' W 092°08'0 0.7
2018-Jun-13 05:00N 29°49' W 092°08'3 5.3
2018-Jun-13 04:30N 29°47' W 092°09'4 7.9
2018-Jun-13 04:00N 29°45' W 092°13'5 8.8
2018-Jun-13 03:29N 29°41' W 092°15'5 0.1
2018-Jun-11 01:07N 29°36' W 092°18'1 8.7
2018-Jun-11 00:56N 29°37' W 092°17'4 8.2
2018-Jun-11 00:28N 29°41' W 092°15'4 8.8
2018-Jun-11 00:00N 29°44' W 092°14'4 9.0
2018-Jun-10 23:30N 29°47' W 092°09'3 4.4
2018-Jun-10 22:54N 29°49' W 092°08'0 0.0
2018-Jun-10 22:30N 29°49' W 092°08'0 0.0
2018-Jun-10 21:57N 29°49' W 092°08'0 0.0
2018-Jun-10 21:30N 29°49' W 092°08'0 0.0
2018-Jun-10 21:00N 29°49' W 092°08'0 0.0
2018-Jun-10 20:30N 29°49' W 092°08'0 0.0
2018-Jun-10 19:54N 29°49' W 092°08'0 0.0
2018-Jun-10 15:29N 29°49' W 092°08'0 0.0
2018-Jun-10 14:59N 29°49' W 092°08'0 0.0
2018-Jun-10 13:17N 29°49' W 092°08'0 0.0
2018-Jun-10 12:32N 29°49' W 092°08'0 0.0
2018-Jun-10 12:23N 29°49' W 092°08'0 0.0
2018-Jun-10 11:50N 29°49' W 092°08'0 0.0
2018-Jun-10 11:20N 29°49' W 092°08'0 0.0
2018-Jun-10 10:53N 29°49' W 092°08'0 0.0
2018-Jun-10 10:20N 29°49' W 092°08'0 0.0
2018-Jun-10 08:53N 29°49' W 092°08'0 0.0
2018-Jun-10 07:50N 29°49' W 092°08'0 0.0
2018-Jun-10 07:29N 29°49' W 092°08'0 0.0
2018-Jun-10 01:32N 29°49' W 092°08'0 0.0
2018-Jun-10 01:17N 29°49' W 092°08'0 0.0
2018-Jun-10 00:23N 29°49' W 092°08'0 0.0
2018-Jun-09 23:50N 29°49' W 092°08'0 0.0
2018-Jun-09 23:26N 29°49' W 092°08'0 0.0
2018-Jun-09 22:11N 29°49' W 092°08'0 0.0
2018-Jun-09 21:50N 29°49' W 092°08'0 0.0
2018-Jun-09 21:29N 29°49' W 092°08'0 0.0
2018-Jun-09 20:59N 29°49' W 092°08'0 0.0
2018-Jun-09 20:11N 29°49' W 092°08'0 0.0
2018-Jun-09 19:53N 29°49' W 092°08'0 0.0
2018-Jun-09 19:29N 29°49' W 092°08'0 0.0
2018-Jun-09 18:59N 29°49' W 092°08'0 0.0
2018-Jun-09 18:29N 29°49' W 092°08'0 0.0
2018-Jun-09 17:59N 29°49' W 092°08'0 0.0
2018-Jun-09 17:29N 29°49' W 092°08'0 0.0
2018-Jun-09 16:35N 29°49' W 092°08'0 0.0
2018-Jun-09 16:20N 29°49' W 092°08'0 0.0
2018-Jun-09 14:25N 29°49' W 092°08'0 0.3
2018-Jun-09 13:58N 29°49' W 092°08'0 0.0
2018-Jun-09 13:28N 29°49' W 092°08'0 0.0
2018-Jun-09 12:58N 29°49' W 092°08'0 0.0
2018-Jun-09 12:28N 29°49' W 092°08'0 0.0
2018-Jun-09 11:58N 29°49' W 092°08'0 0.0
2018-Jun-09 11:28N 29°49' W 092°08'0 0.0
2018-Jun-09 10:58N 29°49' W 092°08'0 0.0
2018-Jun-09 10:28N 29°49' W 092°08'0 0.0
2018-Jun-09 09:58N 29°49' W 092°08'0 0.0
2018-Jun-09 09:28N 29°49' W 092°08'0 0.0
2018-Jun-09 08:58N 29°49' W 092°08'0 0.0
2018-Jun-09 08:28N 29°49' W 092°08'0 0.0
2018-Jun-09 07:58N 29°49' W 092°08'0 0.0
2018-Jun-09 07:28N 29°49' W 092°08'0 0.0
2018-Jun-09 06:58N 29°49' W 092°08'0 0.0
2018-Jun-09 06:28N 29°49' W 092°08'0 0.0
2018-Jun-09 05:58N 29°49' W 092°08'0 0.0
2018-Jun-09 05:28N 29°49' W 092°08'0 0.0
2018-Jun-09 04:58N 29°49' W 092°08'0 0.0
2018-Jun-09 04:28N 29°49' W 092°08'0 0.0
2018-Jun-09 03:58N 29°49' W 092°08'0 0.0
2018-Jun-09 03:28N 29°49' W 092°08'0 0.0
2018-Jun-09 02:58N 29°49' W 092°08'0 0.0
2018-Jun-09 02:28N 29°49' W 092°08'2 3.9
2018-Jun-09 02:00N 29°47' W 092°09'3 5.9
2018-Jun-09 01:30N 29°46' W 092°11'4 8.6
2018-Jun-09 01:00N 29°43' W 092°15'4 8.1
2018-Jun-09 00:27N 29°38' W 092°16'  

Dump ship's entire track history